Time;durP1;ratioP1;P1;durP2;ratioP2;P2;SDS_P1;SDS_P2;PMS_P1;PMS_P2;Temp;Humidity;BMP_temperature;BMP_pressure;BME280_temperature;BME280_humidity;BME280_pressure;Samples;Min_cycle;Max_cycle;Signal;HPM_P1;HPM_P2
2023/01/10 00:08:44;;;;;;;40.70;20.70;;;;;;;4.79;93.39;97679.92;436384;1253;96660;-40
2023/01/10 00:18:51;;;;;;;29.50;20.90;;;;;;;4.74;93.23;97679.98;436371;1253;108628;-40
2023/01/10 00:28:58;;;;;;;27.60;16.60;;;;;;;4.67;93.14;97680.76;436417;1253;97867;-40
2023/01/10 00:39:07;;;;;;;24.80;17.10;;;;;;;4.66;93.29;97686.20;436493;1250;110599;-39
2023/01/10 00:59:21;;;;;;;39.00;21.80;;;;;;;4.51;93.53;97701.45;436621;1251;97877;-40
2023/01/10 01:09:27;;;;;;;27.90;18.80;;;;;;;4.46;93.38;97705.02;436517;1253;110384;-39
2023/01/10 01:19:34;;;;;;;28.00;17.70;;;;;;;4.47;93.28;97714.67;436261;1253;106684;-39
2023/01/10 01:29:41;;;;;;;28.40;16.60;;;;;;;4.51;93.30;97719.95;436350;1252;97880;-41
2023/01/10 01:39:49;;;;;;;36.10;16.60;;;;;;;4.52;93.29;97730.34;436411;1250;107783;-40
2023/01/10 01:49:57;;;;;;;29.00;16.30;;;;;;;4.53;93.28;97741.60;436410;1253;97891;-40
2023/01/10 02:00:03;;;;;;;37.40;21.40;;;;;;;4.55;93.42;97742.43;436478;1250;108657;-40
2023/01/10 02:10:08;;;;;;;35.30;20.20;;;;;;;4.52;93.57;97752.40;436424;1249;107444;-39
2023/01/10 02:20:19;;;;;;;34.60;19.00;;;;;;;4.48;93.55;97763.12;436610;1253;97744;-40
2023/01/10 02:30:37;;;;;;;25.70;17.20;;;;;;;4.45;93.30;97768.17;436525;1253;108653;-40
2023/01/10 02:40:45;;;;;;;32.10;19.00;;;;;;;4.51;93.36;97780.35;436457;1253;107417;-40
2023/01/10 02:50:53;;;;;;;48.40;28.20;;;;;;;4.66;93.51;97785.07;437356;1246;97868;-39
2023/01/10 03:01:13;;;;;;;68.90;34.90;;;;;;;4.70;93.30;97791.13;436068;1253;348801;-40
2023/01/10 03:21:30;;;;;;;;;;;;;;;4.49;93.34;97821.64;436563;1253;110102;-40
2023/01/10 03:31:35;;;;;;;38.50;23.80;;;;;;;4.29;93.17;97837.08;436549;1252;108287;-42
2023/01/10 03:41:49;;;;;;;33.00;21.70;;;;;;;4.21;93.12;97847.58;436614;1253;96671;-41
2023/01/10 03:51:57;;;;;;;29.20;19.90;;;;;;;4.23;93.16;97864.04;436484;1254;110430;-39
2023/01/10 04:02:05;;;;;;;31.10;19.30;;;;;;;4.37;93.35;97888.39;436430;1248;108443;-41
2023/01/10 04:12:12;;;;;;;41.70;24.50;;;;;;;4.54;93.56;97909.59;436525;1253;97893;-39
2023/01/10 04:22:19;;;;;;;73.00;38.20;;;;;;;4.69;93.64;97923.59;436556;1251;107330;-41
2023/01/10 04:32:27;;;;;;;66.10;37.00;;;;;;;4.60;93.31;97942.42;436547;1250;97982;-39
2023/01/10 04:42:34;;;;;;;83.00;43.90;;;;;;;4.41;93.12;97960.16;436495;1250;111694;-39
2023/01/10 04:52:42;;;;;;;73.70;40.10;;;;;;;4.28;93.02;97971.21;436505;1252;108483;-40
2023/01/10 05:02:54;;;;;;;53.20;33.60;;;;;;;4.28;93.17;97986.39;436435;1253;97115;-40
2023/01/10 05:13:02;;;;;;;123.10;67.50;;;;;;;4.36;93.31;98003.67;436357;1253;109945;-39
2023/01/10 05:23:10;;;;;;;83.50;42.30;;;;;;;4.43;93.32;98016.34;436420;1253;108767;-39
2023/01/10 05:33:17;;;;;;;77.80;39.80;;;;;;;4.46;93.47;98022.89;436413;1253;97905;-39
2023/01/10 05:43:25;;;;;;;49.30;28.20;;;;;;;4.41;93.51;98039.27;436479;1248;110814;-40
2023/01/10 05:53:32;;;;;;;35.40;22.80;;;;;;;4.36;93.56;98049.83;436440;1253;106966;-41
2023/01/10 06:03:38;;;;;;;33.10;22.20;;;;;;;4.36;93.35;98069.80;436500;1251;97444;-41
2023/01/10 06:23:54;;;;;;;51.60;31.70;;;;;;;4.44;93.53;98107.03;436453;1253;97833;-39
2023/01/10 06:34:01;;;;;;;49.40;30.70;;;;;;;4.51;93.67;98126.37;436547;1252;110421;-39
2023/01/10 06:44:09;;;;;;;68.40;37.90;;;;;;;4.54;93.90;98143.85;436491;1253;108154;-40
2023/01/10 06:54:16;;;;;;;78.70;39.40;;;;;;;4.45;93.82;98156.17;436675;1252;97899;-39
2023/01/10 07:04:25;;;;;;;75.50;40.10;;;;;;;4.39;93.71;98173.84;436425;1253;109964;-40
2023/01/10 07:14:32;;;;;;;75.40;41.70;;;;;;;4.37;93.54;98185.17;436392;1253;107454;-40
2023/01/10 07:24:40;;;;;;;70.70;38.20;;;;;;;4.42;93.74;98198.82;436317;1253;97506;-39
2023/01/10 07:34:47;;;;;;;47.70;27.70;;;;;;;4.48;93.67;98212.84;436460;1248;107576;-39
2023/01/10 07:44:54;;;;;;;59.20;33.00;;;;;;;4.59;94.09;98220.63;436562;1254;97954;-40
2023/01/10 07:55:01;;;;;;;72.40;39.90;;;;;;;4.51;93.83;98228.27;436464;1252;110811;-39
2023/01/10 08:05:06;;;;;;;56.20;32.80;;;;;;;4.38;93.59;98231.27;436465;1261;107458;-39
2023/01/10 08:15:11;;;;;;;34.50;23.30;;;;;;;4.34;93.61;98236.88;436477;1251;97906;-39
2023/01/10 08:25:17;;;;;;;38.70;23.60;;;;;;;4.34;93.67;98249.04;436472;1248;107160;-39
2023/01/10 08:35:24;;;;;;;32.80;22.20;;;;;;;4.36;93.71;98265.02;436375;1253;97891;-40
2023/01/10 08:45:32;;;;;;;35.10;22.70;;;;;;;4.35;93.79;98270.22;436494;1252;109266;-40
2023/01/10 08:55:39;;;;;;;38.10;22.60;;;;;;;4.37;93.82;98283.99;436493;1252;106385;-39
2023/01/10 09:05:47;;;;;;;36.50;22.80;;;;;;;4.45;94.03;98292.17;436449;1253;97878;-40
2023/01/10 09:15:54;;;;;;;33.80;22.00;;;;;;;4.47;94.05;98311.46;436275;1254;108752;-39
2023/01/10 09:26:02;;;;;;;39.80;22.60;;;;;;;4.43;94.02;98318.75;436418;1253;97874;-40
2023/01/10 09:36:12;;;;;;;30.20;20.70;;;;;;;4.42;94.21;98326.23;436448;1261;110951;-39
2023/01/10 09:46:18;;;;;;;34.10;22.20;;;;;;;4.39;94.43;98343.11;436440;1253;109396;-38
2023/01/10 09:56:25;;;;;;;36.00;24.20;;;;;;;4.43;94.53;98345.62;436395;1254;97886;-38
2023/01/10 10:16:47;;;;;;;39.00;25.50;;;;;;;4.53;94.61;98356.21;436348;1261;97476;-38
2023/01/10 10:26:57;;;;;;;39.40;24.40;;;;;;;4.49;94.81;98354.38;436359;1253;109613;-40
2023/01/10 10:37:03;;;;;;;40.00;27.10;;;;;;;4.55;94.81;98369.75;436541;1254;107576;-39
2023/01/10 10:47:12;;;;;;;38.30;22.90;;;;;;;4.57;94.91;98384.10;436304;1254;98266;-40
2023/01/10 10:57:19;;;;;;;44.80;28.10;;;;;;;4.58;94.94;98399.69;436535;1253;107811;-39
2023/01/10 11:07:29;;;;;;;39.90;25.50;;;;;;;4.63;95.11;98409.20;436510;1248;96635;-40
2023/01/10 11:17:39;;;;;;;74.40;36.40;;;;;;;4.62;95.08;98412.51;436363;1253;111874;-38
2023/01/10 11:27:45;;;;;;;35.30;23.90;;;;;;;4.58;95.11;98421.89;436301;1248;106411;-40
2023/01/10 11:58:15;;;;;;;30.60;21.60;;;;;;;4.57;95.29;98451.65;436238;1254;97874;-39
2023/01/10 12:08:23;;;;;;;;;;;;;;;4.53;95.38;98469.85;436397;1254;109477;-40
2023/01/10 12:18:30;;;;;;;37.40;23.80;;;;;;;4.48;95.52;98481.58;436343;1254;108642;-39
2023/01/10 12:39:04;;;;;;;40.10;25.40;;;;;;;4.49;95.71;98508.40;436349;1248;107998;-39
2023/01/10 12:49:19;;;;;;;35.10;22.40;;;;;;;4.48;95.83;98517.63;436349;1254;97495;-40
2023/01/10 13:09:37;;;;;;;36.70;22.80;;;;;;;4.45;95.95;98542.90;436255;1248;109055;-39
2023/01/10 13:19:44;;;;;;;37.00;20.70;;;;;;;4.43;96.06;98558.48;436224;1247;97874;-39
2023/01/10 13:29:51;;;;;;;33.40;21.50;;;;;;;4.41;96.36;98570.84;436385;1261;109271;-40
2023/01/10 13:40:00;;;;;;;34.80;19.90;;;;;;;4.41;96.39;98594.04;436421;1254;97509;-39
2023/01/10 13:50:41;;;;;;;28.20;19.20;;;;;;;4.44;96.46;98604.16;436270;1254;109086;-40
2023/01/10 14:11:18;;;;;;;36.50;21.60;;;;;;;4.47;96.54;98625.92;436427;1248;97783;-40
2023/01/10 14:21:23;;;;;;;36.20;21.50;;;;;;;4.48;96.66;98634.65;436426;1247;107872;-39
2023/01/10 14:41:42;;;;;;;30.70;21.40;;;;;;;4.50;96.92;98638.09;436365;1248;109458;-40
2023/01/10 15:01:59;;;;;;;33.90;23.00;;;;;;;4.49;96.90;98661.83;436056;1253;458979;-38
2023/01/10 15:12:12;;;;;;;36.00;22.80;;;;;;;4.51;96.85;98680.11;436663;1253;108332;-39
2023/01/10 15:22:24;;;;;;;32.40;20.80;;;;;;;4.50;96.83;98692.83;436810;1250;97888;-38
2023/01/10 15:42:44;;;;;;;34.80;22.10;;;;;;;4.51;96.81;98724.95;436046;1250;108079;-39
2023/01/10 15:52:51;;;;;;;27.80;20.70;;;;;;;4.49;96.65;98740.36;436167;1253;97905;-40
2023/01/10 16:02:59;;;;;;;40.70;30.10;;;;;;;4.49;96.69;98744.98;436291;1253;108602;-40
2023/01/10 16:43:58;;;;;;;40.70;23.60;;;;;;;4.48;96.43;98771.00;435951;1254;97868;-39
2023/01/10 16:54:05;;;;;;;38.40;24.10;;;;;;;4.47;96.46;98777.14;435359;1250;108699;-39
2023/01/10 17:04:19;;;;;;;32.40;23.30;;;;;;;4.45;96.54;98788.17;435366;1254;97505;-39
2023/01/10 17:14:26;;;;;;;35.40;24.70;;;;;;;4.44;96.45;98801.16;435273;1254;109764;-40
2023/01/10 17:24:33;;;;;;;32.50;20.30;;;;;;;4.45;96.51;98816.80;435248;1254;106529;-38
2023/01/10 17:34:41;;;;;;;43.00;26.60;;;;;;;4.41;96.49;98823.58;435295;1251;96709;-40
2023/01/10 17:44:49;;;;;;;37.00;24.40;;;;;;;4.32;96.40;98849.79;435427;1254;107688;-42
2023/01/10 17:54:56;;;;;;;37.40;23.80;;;;;;;4.33;96.49;98862.94;435857;1253;97196;-40
2023/01/10 18:05:06;;;;;;;31.10;21.80;;;;;;;4.33;96.52;98868.69;436069;1253;110077;-38
2023/01/10 18:15:14;;;;;;;35.80;23.70;;;;;;;4.35;96.53;98871.89;435807;1251;107594;-40
2023/01/10 18:25:21;;;;;;;48.00;31.70;;;;;;;4.36;96.50;98880.95;437731;1253;97398;-40
2023/01/10 18:35:29;;;;;;;58.10;31.80;;;;;;;4.29;96.66;98896.15;435905;1253;110477;-39
2023/01/10 18:45:36;;;;;;;29.30;19.20;;;;;;;4.22;96.56;98893.54;435858;1253;108604;-40
2023/01/10 18:55:52;;;;;;;36.50;21.30;;;;;;;4.16;96.55;98897.23;435991;1253;96715;-39
2023/01/10 19:06:01;;;;;;;31.30;19.30;;;;;;;4.15;96.55;98903.70;435832;1253;109004;-39
2023/01/10 19:16:12;;;;;;;39.20;25.20;;;;;;;4.14;96.54;98917.77;435764;1253;108811;-41
2023/01/10 19:26:20;;;;;;;46.00;26.10;;;;;;;4.15;96.62;98921.41;435916;1253;97169;-40
2023/01/10 19:36:33;;;;;;;41.90;23.30;;;;;;;4.19;96.67;98926.38;435770;1253;108879;-38
2023/01/10 19:46:42;;;;;;;48.60;28.00;;;;;;;4.23;96.64;98939.49;435884;1253;97865;-39
2023/01/10 20:06:56;;;;;;;40.30;25.50;;;;;;;4.22;96.58;98933.86;435827;1253;108599;-40
2023/01/10 20:17:06;;;;;;;41.20;28.00;;;;;;;4.14;96.50;98929.41;435889;1251;97873;-40
2023/01/10 20:27:13;;;;;;;48.50;29.80;;;;;;;4.11;96.42;98934.36;435762;1253;107957;-45
2023/01/10 20:37:22;;;;;;;57.20;34.50;;;;;;;4.07;96.50;98938.48;435784;1253;97868;-40
2023/01/10 20:47:30;;;;;;;67.40;36.10;;;;;;;4.02;96.76;98930.85;435798;1250;109407;-39
2023/01/10 20:57:38;;;;;;;58.80;35.10;;;;;;;3.91;96.57;98942.38;435766;1253;108223;-39
2023/01/10 21:07:45;;;;;;;52.60;34.90;;;;;;;3.86;96.37;98944.63;435803;1253;97883;-40
2023/01/10 21:17:52;;;;;;;45.80;27.10;;;;;;;3.92;96.47;98957.60;435794;1253;109087;-40
2023/01/10 21:28:00;;;;;;;41.60;25.80;;;;;;;4.08;96.73;98965.59;435648;1253;96677;-39
2023/01/10 21:38:07;;;;;;;46.00;24.70;;;;;;;4.17;96.62;98969.51;435746;1253;110422;-39
2023/01/10 21:48:15;;;;;;;43.00;24.20;;;;;;;4.25;96.52;98971.70;435530;1251;108591;-40
2023/01/10 21:58:22;;;;;;;56.80;31.50;;;;;;;4.29;96.59;98976.66;435794;1253;97830;-39
2023/01/10 22:08:29;;;;;;;63.20;33.10;;;;;;;4.26;96.62;98978.42;435838;1249;110683;-40
2023/01/10 22:18:37;;;;;;;58.40;32.70;;;;;;;4.11;96.51;98979.86;435955;1250;108411;-38
2023/01/10 22:28:44;;;;;;;44.30;28.00;;;;;;;4.05;96.37;98974.54;435690;1253;96629;-39
2023/01/10 22:38:51;;;;;;;57.10;36.40;;;;;;;4.05;96.31;98978.45;435666;1253;112889;-41
2023/01/10 22:48:59;;;;;;;39.20;26.70;;;;;;;4.12;96.38;98973.79;435774;1250;107292;-41
2023/01/10 22:59:06;;;;;;;50.00;25.90;;;;;;;4.20;96.46;98977.48;435717;1253;97492;-39
2023/01/10 23:09:14;;;;;;;42.20;24.90;;;;;;;4.30;96.44;98981.55;435670;1251;106984;-40
2023/01/10 23:19:21;;;;;;;46.70;26.30;;;;;;;4.27;96.38;98979.28;435579;1253;98005;-39
2023/01/10 23:29:25;;;;;;;89.00;44.50;;;;;;;4.18;96.37;98980.75;435690;1253;110659;-40
2023/01/10 23:39:31;;;;;;;46.20;23.90;;;;;;;4.04;96.04;98975.94;435784;1253;97490;-40
2023/01/10 23:49:38;;;;;;;38.10;22.40;;;;;;;4.01;96.03;98971.23;435634;1253;97868;-40
2023/01/10 23:59:45;;;;;;;27.60;17.60;;;;;;;4.04;96.16;98977.95;435513;1253;111561;-40
